Time;durP1;ratioP1;P1;durP2;ratioP2;P2;SDS_P1;SDS_P2;PMS_P1;PMS_P2;Temp;Humidity;BMP_temperature;BMP_pressure;BME280_temperature;BME280_humidity;BME280_pressure;Samples;Min_cycle;Max_cycle;Signal;HPM_P1;HPM_P2
2020/12/31 00:01:21;;;;;;;24.58;13.32;;;10.70;99.90;;;;;;5094201;28;20048;-73
2020/12/31 00:03:47;;;;;;;23.77;13.38;;;10.70;99.90;;;;;;5076236;28;20381;-73
2020/12/31 00:06:13;;;;;;;24.90;12.55;;;10.70;99.90;;;;;;5094637;28;20032;-73
2020/12/31 00:08:39;;;;;;;34.28;15.10;;;10.70;99.90;;;;;;5076308;28;20115;-72
2020/12/31 00:11:05;;;;;;;29.05;14.77;;;10.70;99.90;;;;;;5094424;28;20034;-80
2020/12/31 00:13:32;;;;;;;29.98;14.25;;;10.60;99.90;;;;;;5094564;28;20020;-77
2020/12/31 00:15:58;;;;;;;26.83;14.82;;;10.60;99.90;;;;;;5090988;28;20473;-78
2020/12/31 00:18:24;;;;;;;34.20;15.68;;;10.60;99.90;;;;;;5083165;28;20096;-79
2020/12/31 00:20:50;;;;;;;29.65;15.20;;;10.60;99.90;;;;;;5065693;28;20478;-77
2020/12/31 00:23:16;;;;;;;26.80;14.68;;;10.60;99.90;;;;;;5063557;28;20032;-77
2020/12/31 00:25:50;;;;;;;33.85;16.77;;;10.60;99.90;;;;;;5082638;28;20023;-78
2020/12/31 00:28:19;;;;;;;34.58;16.52;;;10.50;99.90;;;;;;5069970;28;20033;-78
2020/12/31 00:30:46;;;;;;;31.63;16.98;;;10.50;99.90;;;;;;5074405;28;20024;-79
2020/12/31 00:33:14;;;;;;;32.50;16.33;;;10.50;99.90;;;;;;5074788;28;20028;-79
2020/12/31 00:35:41;;;;;;;28.73;15.80;;;10.50;99.90;;;;;;5074541;28;20052;-79
2020/12/31 00:38:06;;;;;;;25.10;14.68;;;10.50;99.90;;;;;;5074927;28;20111;-79
2020/12/31 00:40:33;;;;;;;26.80;15.82;;;10.40;99.90;;;;;;5073303;28;20124;-79
2020/12/31 00:43:02;;;;;;;30.85;15.73;;;10.40;99.90;;;;;;5074564;28;20016;-79
2020/12/31 00:45:28;;;;;;;27.60;15.02;;;10.40;99.90;;;;;;5074006;28;20021;-78
2020/12/31 00:47:54;;;;;;;31.48;15.40;;;10.40;99.90;;;;;;5072458;28;20100;-78
2020/12/31 00:50:22;;;;;;;28.65;15.70;;;10.30;99.90;;;;;;5073843;28;20021;-78
2020/12/31 00:52:51;;;;;;;28.02;15.35;;;10.30;99.90;;;;;;5055395;28;20112;-77
2020/12/31 00:55:17;;;;;;;22.98;13.88;;;10.30;99.90;;;;;;5073716;28;20035;-78
2020/12/31 00:57:43;;;;;;;26.45;13.75;;;10.20;99.90;;;;;;5073753;28;20024;-77
2020/12/31 01:00:10;;;;;;;23.73;14.18;;;10.10;99.90;;;;;;5073835;28;20045;-80
2020/12/31 01:02:36;;;;;;;21.92;13.55;;;10.10;99.90;;;;;;5073588;28;20024;-80
2020/12/31 01:05:09;;;;;;;26.58;13.40;;;10.00;99.90;;;;;;5073813;28;20047;-79
2020/12/31 01:07:35;;;;;;;22.05;12.93;;;10.00;99.90;;;;;;5074030;28;20095;-79
2020/12/31 01:10:01;;;;;;;21.85;12.80;;;9.90;99.90;;;;;;5073396;28;20482;-77
2020/12/31 01:12:29;;;;;;;25.38;13.65;;;9.90;99.90;;;;;;5073140;28;20025;-78
2020/12/31 01:14:54;;;;;;;22.73;12.77;;;9.80;99.90;;;;;;5073041;28;20085;-79
2020/12/31 01:17:20;;;;;;;23.13;13.77;;;9.80;99.90;;;;;;5073321;28;20470;-79
2020/12/31 01:19:46;;;;;;;25.58;13.20;;;9.70;99.90;;;;;;5073200;28;20102;-78
2020/12/31 01:22:15;;;;;;;18.08;12.18;;;9.70;99.90;;;;;;5073094;28;20040;-78
2020/12/31 01:24:41;;;;;;;21.10;12.68;;;9.70;99.90;;;;;;5073232;28;20107;-78
2020/12/31 01:27:06;;;;;;;27.70;14.32;;;9.60;99.90;;;;;;5072826;28;20519;-78
2020/12/31 01:29:32;;;;;;;32.20;16.08;;;9.60;99.90;;;;;;5073413;28;20042;-78
2020/12/31 01:31:58;;;;;;;37.35;18.20;;;9.60;99.90;;;;;;5073315;28;20064;-78
2020/12/31 01:34:23;;;;;;;40.97;17.98;;;9.50;99.90;;;;;;5056143;28;20021;-79
2020/12/31 01:36:53;;;;;;;35.80;17.20;;;9.50;99.90;;;;;;5073818;28;20096;-79
2020/12/31 01:39:22;;;;;;;34.75;16.92;;;9.40;99.90;;;;;;5073465;28;20027;-80
2020/12/31 01:41:49;;;;;;;32.17;16.58;;;9.30;99.90;;;;;;5073666;28;20052;-79
2020/12/31 01:44:15;;;;;;;38.53;17.60;;;9.30;99.90;;;;;;5073202;28;20016;-79
2020/12/31 01:46:44;;;;;;;32.35;17.15;;;9.20;99.90;;;;;;5071744;28;20016;-73
2020/12/31 01:49:13;;;;;;;30.17;15.18;;;9.10;99.90;;;;;;5072180;28;20389;-73
2020/12/31 01:51:41;;;;;;;31.00;15.90;;;9.10;99.90;;;;;;5072153;28;20046;-73
2020/12/31 01:54:07;;;;;;;25.33;15.85;;;9.00;99.90;;;;;;5072070;28;20020;-74
2020/12/31 01:56:34;;;;;;;30.02;15.60;;;9.00;99.90;;;;;;5072144;28;20033;-74
2020/12/31 01:59:01;;;;;;;28.55;15.32;;;8.90;99.90;;;;;;5054061;28;20024;-74
2020/12/31 02:01:27;;;;;;;25.52;13.77;;;8.80;99.90;;;;;;5071833;28;20040;-74
2020/12/31 02:03:55;;;;;;;26.15;14.15;;;8.80;99.90;;;;;;5071441;28;20027;-74
2020/12/31 02:06:26;;;;;;;26.15;14.57;;;8.80;99.90;;;;;;5063512;28;20485;-74
2020/12/31 02:08:52;;;;;;;28.20;13.73;;;8.80;99.90;;;;;;5070589;28;20043;-74
2020/12/31 02:11:20;;;;;;;24.05;13.45;;;8.80;99.90;;;;;;5070703;28;20020;-72
2020/12/31 02:13:46;;;;;;;21.25;12.98;;;8.70;99.90;;;;;;5071767;28;20066;-72
2020/12/31 02:16:16;;;;;;;17.98;11.85;;;8.70;99.90;;;;;;5071821;28;20043;-73
2020/12/31 02:19:11;;;;;;;27.08;13.10;;;8.60;99.90;;;;;;5071850;28;20029;-74
2020/12/31 02:21:38;;;;;;;23.67;13.45;;;8.60;99.90;;;;;;5069472;28;20402;-74
2020/12/31 02:24:06;;;;;;;22.52;12.75;;;8.60;99.90;;;;;;5071710;28;20019;-73
2020/12/31 02:26:34;;;;;;;24.42;13.50;;;8.50;99.90;;;;;;5071757;28;20405;-72
2020/12/31 02:29:00;;;;;;;23.60;13.13;;;8.50;99.90;;;;;;5071986;28;20044;-72
2020/12/31 02:31:27;;;;;;;23.80;12.68;;;8.50;99.90;;;;;;5071818;28;20021;-72
2020/12/31 02:33:55;;;;;;;21.65;12.85;;;8.50;99.90;;;;;;5071715;28;20378;-73
2020/12/31 02:36:23;;;;;;;24.05;13.52;;;8.40;99.90;;;;;;5071856;28;20021;-72
2020/12/31 02:38:50;;;;;;;26.67;13.05;;;8.40;99.90;;;;;;5071738;28;20028;-72
2020/12/31 02:41:16;;;;;;;23.38;12.68;;;8.40;99.90;;;;;;5071777;28;20052;-73
2020/12/31 02:43:42;;;;;;;23.52;12.75;;;8.30;99.90;;;;;;5071712;28;20078;-73
2020/12/31 02:46:10;;;;;;;20.73;12.32;;;8.30;99.90;;;;;;5071620;28;20017;-73
2020/12/31 02:48:36;;;;;;;19.95;12.75;;;8.30;99.90;;;;;;5071881;28;20021;-73
2020/12/31 02:51:02;;;;;;;21.33;12.85;;;8.20;99.90;;;;;;5071401;28;20021;-73
2020/12/31 02:53:28;;;;;;;26.38;13.20;;;8.20;99.90;;;;;;5071545;28;20021;-72
2020/12/31 02:55:53;;;;;;;23.15;13.77;;;8.20;99.90;;;;;;5071516;28;20035;-73
2020/12/31 02:58:19;;;;;;;34.13;15.00;;;8.10;99.90;;;;;;5070144;28;20558;-73
2020/12/31 03:00:45;;;;;;;32.58;15.77;;;8.10;99.90;;;;;;5069959;28;20136;-73
2020/12/31 03:03:11;;;;;;;30.95;15.18;;;8.10;99.90;;;;;;5071248;28;20024;-72
2020/12/31 03:05:36;;;;;;;41.20;15.80;;;8.10;99.90;;;;;;5071374;28;20029;-73
2020/12/31 03:08:03;;;;;;;34.83;15.40;;;8.10;99.90;;;;;;5071335;28;20413;-72
2020/12/31 03:10:28;;;;;;;36.28;16.58;;;8.10;99.90;;;;;;5071334;28;20019;-73
2020/12/31 03:12:54;;;;;;;34.85;16.08;;;8.00;99.90;;;;;;5071246;28;20024;-73
2020/12/31 03:15:21;;;;;;;40.22;16.77;;;8.00;99.90;;;;;;5071907;28;20074;-73
2020/12/31 03:17:47;;;;;;;38.90;16.65;;;8.00;99.90;;;;;;5073849;28;20028;-72
2020/12/31 03:20:13;;;;;;;37.00;16.63;;;7.90;99.90;;;;;;5074889;28;20383;-73
2020/12/31 03:22:39;;;;;;;37.40;18.75;;;7.90;99.90;;;;;;5074934;28;20082;-72
2020/12/31 03:25:05;;;;;;;35.20;16.67;;;7.90;99.90;;;;;;5075022;28;20375;-72
2020/12/31 03:27:31;;;;;;;29.38;14.95;;;7.90;99.90;;;;;;5085594;28;20016;-72
2020/12/31 03:29:57;;;;;;;33.45;15.18;;;7.80;99.90;;;;;;5089553;28;20051;-72
2020/12/31 03:32:23;;;;;;;31.27;15.55;;;7.80;99.90;;;;;;5094777;28;20029;-72
2020/12/31 03:34:49;;;;;;;27.67;15.52;;;7.80;99.90;;;;;;5094577;28;20161;-72
2020/12/31 03:37:15;;;;;;;32.45;16.60;;;7.80;99.90;;;;;;5079148;28;20025;-73
2020/12/31 03:39:41;;;;;;;28.70;16.23;;;7.70;99.90;;;;;;5074964;28;20051;-72
2020/12/31 03:42:07;;;;;;;31.35;15.90;;;7.70;99.90;;;;;;5076044;28;20467;-73
2020/12/31 03:44:34;;;;;;;33.80;17.00;;;7.70;99.90;;;;;;5075848;28;20021;-72
2020/12/31 03:46:59;;;;;;;28.42;16.98;;;7.70;99.90;;;;;;5075597;28;20066;-72
2020/12/31 03:49:25;;;;;;;27.48;16.75;;;7.70;99.90;;;;;;5075164;28;20025;-73
2020/12/31 03:51:51;;;;;;;35.85;16.73;;;7.60;99.90;;;;;;5074536;28;20025;-71
2020/12/31 03:54:17;;;;;;;29.48;16.83;;;7.60;99.90;;;;;;5074355;28;20077;-72
2020/12/31 03:56:42;;;;;;;28.55;16.90;;;7.60;99.90;;;;;;5074327;28;20024;-72
2020/12/31 03:59:08;;;;;;;24.25;15.55;;;7.50;99.90;;;;;;5074414;28;20063;-72
2020/12/31 04:01:34;;;;;;;30.67;17.27;;;7.50;99.90;;;;;;5074110;28;20184;-73
2020/12/31 04:04:00;;;;;;;28.70;17.25;;;7.50;99.90;;;;;;5074097;28;20052;-71
2020/12/31 04:06:27;;;;;;;35.00;17.65;;;7.50;99.90;;;;;;5073876;28;20082;-73
2020/12/31 04:08:53;;;;;;;35.53;18.45;;;7.40;99.90;;;;;;5073987;28;20101;-73
2020/12/31 04:11:19;;;;;;;46.88;21.30;;;7.40;99.90;;;;;;5074252;28;20112;-72
2020/12/31 04:13:45;;;;;;;47.30;21.60;;;7.40;99.90;;;;;;5073986;28;20021;-72
2020/12/31 04:16:11;;;;;;;59.03;24.02;;;7.40;99.90;;;;;;5074045;28;20050;-73
2020/12/31 04:18:36;;;;;;;57.15;25.00;;;7.40;99.90;;;;;;5073782;28;20025;-73
2020/12/31 04:21:03;;;;;;;53.83;25.33;;;7.40;99.90;;;;;;5073870;28;20479;-72
2020/12/31 04:23:28;;;;;;;52.53;24.88;;;7.40;99.90;;;;;;5073555;28;20056;-72
2020/12/31 04:25:54;;;;;;;40.67;18.67;;;7.40;99.90;;;;;;5073801;28;20770;-73
2020/12/31 04:28:20;;;;;;;37.28;19.55;;;7.40;99.90;;;;;;5073129;28;20017;-73
2020/12/31 04:30:49;;;;;;;30.02;17.33;;;7.30;99.90;;;;;;5073531;28;20467;-74
2020/12/31 04:33:16;;;;;;;32.38;16.45;;;7.30;99.90;;;;;;5073711;28;20165;-74
2020/12/31 04:35:42;;;;;;;31.98;16.73;;;7.30;99.90;;;;;;5055740;28;20033;-73
2020/12/31 04:38:08;;;;;;;26.15;16.35;;;7.30;99.90;;;;;;5073606;28;20060;-74
2020/12/31 04:40:34;;;;;;;28.85;15.65;;;7.30;99.90;;;;;;5073323;28;20106;-73
2020/12/31 04:43:01;;;;;;;21.42;13.35;;;7.40;99.90;;;;;;5073130;28;20150;-72
2020/12/31 04:45:28;;;;;;;20.65;12.18;;;7.30;99.90;;;;;;5071933;28;20036;-73
2020/12/31 04:48:07;;;;;;;29.73;13.80;;;7.30;99.90;;;;;;5073232;28;20098;-72
2020/12/31 04:50:38;;;;;;;24.83;14.93;;;7.30;99.90;;;;;;5072668;28;20060;-73
2020/12/31 04:53:06;;;;;;;25.77;13.93;;;7.30;99.90;;;;;;5072873;28;20054;-75
2020/12/31 04:55:44;;;;;;;26.90;14.13;;;7.30;99.90;;;;;;5073047;28;20545;-74
2020/12/31 04:58:11;;;;;;;23.83;14.13;;;7.30;99.90;;;;;;5073023;28;20499;-74
2020/12/31 05:00:38;;;;;;;27.70;14.82;;;7.30;99.90;;;;;;5072710;28;20402;-72
2020/12/31 05:03:05;;;;;;;26.23;14.20;;;7.30;99.90;;;;;;5072631;28;20054;-72
2020/12/31 05:05:31;;;;;;;22.10;13.32;;;7.30;99.90;;;;;;5072618;28;20367;-73
2020/12/31 05:07:58;;;;;;;28.83;13.45;;;7.30;99.90;;;;;;5054411;28;20028;-73
2020/12/31 05:10:24;;;;;;;25.20;14.82;;;7.30;99.90;;;;;;5071510;28;20378;-74
2020/12/31 05:13:01;;;;;;;24.13;14.18;;;7.20;99.90;;;;;;5072577;28;20029;-74
2020/12/31 05:15:38;;;;;;;22.92;13.85;;;7.20;99.90;;;;;;5072705;28;20546;-74
2020/12/31 05:18:17;;;;;;;23.02;14.18;;;7.20;99.90;;;;;;5072626;28;20032;-74
2020/12/31 05:20:44;;;;;;;26.33;13.93;;;7.20;99.90;;;;;;5054526;28;20020;-74
2020/12/31 05:23:29;;;;;;;27.15;14.32;;;7.20;99.90;;;;;;5072174;28;20417;-74
2020/12/31 05:25:56;;;;;;;28.40;15.35;;;7.20;99.90;;;;;;5072308;28;20123;-75
2020/12/31 05:28:28;;;;;;;27.85;14.30;;;7.20;99.90;;;;;;5072451;28;20074;-74
2020/12/31 05:30:59;;;;;;;30.50;14.68;;;7.20;99.90;;;;;;5072229;28;20013;-75
2020/12/31 05:33:35;;;;;;;27.52;15.18;;;7.20;99.90;;;;;;5072123;28;20028;-72
2020/12/31 05:36:22;;;;;;;29.40;16.10;;;7.10;99.90;;;;;;5054159;28;20063;-74
2020/12/31 05:39:01;;;;;;;38.78;19.02;;;7.20;99.90;;;;;;5071453;28;20104;-74
2020/12/31 05:41:37;;;;;;;52.30;21.88;;;7.10;99.90;;;;;;5071857;28;20023;-74
2020/12/31 05:44:08;;;;;;;53.72;23.88;;;7.10;99.90;;;;;;5072093;28;20443;-80
2020/12/31 05:46:35;;;;;;;50.42;23.02;;;7.10;99.90;;;;;;5072259;28;20024;-79
2020/12/31 05:49:09;;;;;;;45.53;19.90;;;7.20;99.90;;;;;;5072232;28;20025;-78
2020/12/31 05:51:41;;;;;;;50.72;21.25;;;7.10;99.90;;;;;;5072342;28;20020;-79
2020/12/31 05:54:09;;;;;;;44.28;20.40;;;7.10;99.90;;;;;;5072276;28;20114;-79
2020/12/31 05:56:38;;;;;;;56.15;23.20;;;7.10;99.90;;;;;;5072044;28;20119;-79
2020/12/31 05:59:21;;;;;;;50.83;22.58;;;7.10;99.90;;;;;;5054082;28;20485;-80
2020/12/31 06:01:58;;;;;;;49.72;21.60;;;7.20;99.90;;;;;;5054375;28;20046;-80
2020/12/31 06:04:46;;;;;;;52.03;20.67;;;7.20;99.90;;;;;;5072317;28;20020;-79
2020/12/31 06:07:29;;;;;;;47.97;21.55;;;7.30;99.90;;;;;;5054466;28;20029;-80
2020/12/31 06:10:09;;;;;;;44.05;19.88;;;7.30;99.90;;;;;;5071956;28;20486;-80
2020/12/31 06:12:55;;;;;;;41.10;19.65;;;7.30;99.90;;;;;;5072532;28;20024;-80
2020/12/31 06:15:34;;;;;;;32.92;18.38;;;7.40;99.90;;;;;;5072318;28;20100;-80
2020/12/31 06:18:02;;;;;;;40.83;17.75;;;7.40;99.90;;;;;;5072134;28;20039;-81
2020/12/31 06:20:29;;;;;;;32.58;18.75;;;7.50;99.90;;;;;;5072025;28;20017;-80
2020/12/31 06:23:01;;;;;;;33.10;18.55;;;7.50;99.90;;;;;;5071673;28;20067;-80
2020/12/31 06:25:36;;;;;;;33.10;16.57;;;7.50;99.90;;;;;;5071910;28;20043;-81
2020/12/31 06:28:14;;;;;;;27.35;15.32;;;7.50;99.90;;;;;;5072494;28;20025;-79
2020/12/31 06:30:42;;;;;;;35.33;16.20;;;7.50;99.90;;;;;;5071351;28;20035;-80
2020/12/31 06:33:20;;;;;;;28.65;16.13;;;7.60;99.90;;;;;;5071378;28;20059;-73
2020/12/31 06:35:57;;;;;;;27.08;15.05;;;7.60;99.90;;;;;;5070624;28;20025;-73
2020/12/31 06:38:39;;;;;;;34.70;17.23;;;7.70;99.90;;;;;;5071173;28;20406;-75
2020/12/31 06:41:26;;;;;;;27.77;16.95;;;7.70;99.90;;;;;;5053175;28;20494;-74
2020/12/31 06:44:08;;;;;;;31.80;17.67;;;7.70;99.90;;;;;;5070671;28;20044;-75
2020/12/31 06:46:41;;;;;;;34.20;17.55;;;7.70;99.90;;;;;;5071057;28;20043;-75
2020/12/31 06:49:08;;;;;;;35.60;18.40;;;7.80;99.90;;;;;;5070836;28;20059;-75
2020/12/31 06:51:38;;;;;;;29.10;17.40;;;7.80;99.90;;;;;;5063571;28;20490;-79
2020/12/31 06:54:04;;;;;;;26.73;15.95;;;7.80;99.90;;;;;;5057034;28;20039;-75
2020/12/31 06:56:43;;;;;;;26.33;15.65;;;7.90;99.90;;;;;;5073909;28;20150;-75
2020/12/31 06:59:32;;;;;;;27.30;15.45;;;7.90;99.90;;;;;;5074322;28;20028;-76
2020/12/31 07:02:22;;;;;;;35.05;16.95;;;8.00;99.90;;;;;;5073717;28;20127;-73
2020/12/31 07:04:48;;;;;;;31.75;17.63;;;8.00;99.90;;;;;;5070952;28;20032;-77
2020/12/31 07:07:20;;;;;;;29.40;16.65;;;8.00;99.90;;;;;;5094506;28;20047;-76
2020/12/31 07:09:54;;;;;;;31.93;16.83;;;8.00;99.90;;;;;;5094384;28;20024;-77
2020/12/31 07:12:34;;;;;;;28.17;15.93;;;8.00;99.90;;;;;;5094642;28;20028;-77
2020/12/31 07:15:00;;;;;;;29.77;17.48;;;8.00;99.90;;;;;;5094208;28;20020;-78
2020/12/31 07:17:35;;;;;;;32.70;17.63;;;8.00;99.90;;;;;;5093977;28;20035;-76
2020/12/31 07:20:07;;;;;;;28.15;16.05;;;8.00;99.90;;;;;;5076206;28;20046;-79
2020/12/31 07:22:36;;;;;;;25.17;15.45;;;8.00;99.90;;;;;;5075998;28;20056;-74
2020/12/31 07:25:03;;;;;;;28.92;16.42;;;8.00;99.90;;;;;;5093909;28;20028;-76
2020/12/31 07:27:31;;;;;;;32.08;18.35;;;7.90;99.90;;;;;;5093834;28;20103;-78
2020/12/31 07:30:08;;;;;;;31.42;17.58;;;7.90;99.90;;;;;;5095417;28;20090;-78
2020/12/31 07:33:00;;;;;;;40.25;18.40;;;7.90;99.90;;;;;;5096311;28;20028;-77
2020/12/31 07:35:26;;;;;;;29.42;18.10;;;7.80;99.90;;;;;;5085818;28;20027;-80
2020/12/31 07:37:55;;;;;;;30.15;17.30;;;7.80;99.90;;;;;;5084175;28;20029;-80
2020/12/31 07:40:27;;;;;;;30.38;17.20;;;7.80;99.90;;;;;;5082207;28;20063;-78
2020/12/31 07:42:53;;;;;;;34.08;17.20;;;7.80;99.90;;;;;;5056721;28;20467;-79
2020/12/31 07:45:18;;;;;;;30.98;17.50;;;7.80;99.90;;;;;;5074077;28;20081;-79
2020/12/31 07:47:52;;;;;;;37.28;19.73;;;7.80;99.90;;;;;;5073670;28;20027;-80
2020/12/31 07:50:19;;;;;;;36.55;19.45;;;7.90;99.90;;;;;;5087298;28;20024;-78
2020/12/31 07:52:45;;;;;;;31.02;20.02;;;7.80;99.90;;;;;;5073894;28;20081;-79
2020/12/31 07:55:11;;;;;;;30.90;19.00;;;7.90;99.90;;;;;;5055503;28;20025;-78
2020/12/31 07:57:38;;;;;;;39.22;21.85;;;7.90;99.90;;;;;;5055368;28;20032;-79
2020/12/31 08:00:11;;;;;;;32.33;18.42;;;8.00;99.90;;;;;;5055784;28;20049;-80
2020/12/31 08:02:43;;;;;;;35.00;19.13;;;8.00;99.90;;;;;;5054943;28;20025;-78
2020/12/31 08:05:21;;;;;;;33.35;19.95;;;8.00;99.90;;;;;;5055317;28;20110;-78
2020/12/31 08:07:57;;;;;;;35.83;18.33;;;8.00;99.90;;;;;;5074214;28;20028;-81
2020/12/31 08:10:24;;;;;;;35.22;18.70;;;8.10;99.90;;;;;;5073533;28;20039;-79
2020/12/31 08:13:03;;;;;;;35.35;16.77;;;8.10;99.90;;;;;;5074037;28;20031;-79
2020/12/31 08:15:30;;;;;;;33.15;17.13;;;8.20;99.90;;;;;;5073765;28;20078;-80
2020/12/31 08:17:57;;;;;;;33.15;16.33;;;8.20;99.90;;;;;;5073456;28;20020;-80
2020/12/31 08:20:37;;;;;;;31.80;16.92;;;8.30;99.90;;;;;;5055238;28;20094;-81
2020/12/31 08:23:04;;;;;;;36.55;17.30;;;8.30;99.90;;;;;;5072447;28;20025;-78
2020/12/31 08:25:37;;;;;;;32.53;16.83;;;8.30;99.90;;;;;;5054994;28;20375;-79
2020/12/31 08:28:05;;;;;;;29.00;16.50;;;8.30;99.90;;;;;;5073229;28;20459;-78
2020/12/31 08:30:36;;;;;;;36.80;18.27;;;8.40;99.90;;;;;;5072950;28;20023;-79
2020/12/31 08:33:03;;;;;;;37.85;18.83;;;8.40;99.90;;;;;;5072744;28;20467;-82
2020/12/31 08:35:43;;;;;;;39.72;18.55;;;8.40;99.90;;;;;;5055143;28;20025;-80
2020/12/31 08:38:16;;;;;;;33.67;18.88;;;8.40;99.90;;;;;;5054356;28;20478;-78
2020/12/31 08:40:46;;;;;;;38.30;17.88;;;8.40;99.90;;;;;;5072573;28;20035;-79
2020/12/31 08:43:30;;;;;;;39.45;19.30;;;8.50;99.90;;;;;;5072848;28;20032;-82
2020/12/31 08:45:57;;;;;;;35.60;16.92;;;8.50;99.90;;;;;;5072435;28;20016;-83
2020/12/31 08:48:31;;;;;;;37.83;17.05;;;8.50;99.90;;;;;;5073180;28;20031;-82
2020/12/31 08:51:03;;;;;;;29.65;16.13;;;8.50;99.90;;;;;;5055219;28;20016;-82
2020/12/31 08:53:30;;;;;;;29.08;16.58;;;8.50;99.90;;;;;;5072303;28;20036;-79
2020/12/31 08:55:56;;;;;;;32.55;17.48;;;8.50;99.90;;;;;;5072261;28;20024;-80
2020/12/31 08:58:29;;;;;;;30.42;17.52;;;8.50;99.90;;;;;;5072140;28;20029;-80
2020/12/31 09:00:56;;;;;;;29.17;16.60;;;8.60;99.90;;;;;;5053912;28;20354;-80
2020/12/31 09:03:23;;;;;;;31.30;17.13;;;8.60;99.90;;;;;;5072300;28;20120;-79
2020/12/31 09:05:55;;;;;;;33.70;17.95;;;8.60;99.90;;;;;;5072455;28;20027;-80
2020/12/31 09:08:21;;;;;;;;;;;8.70;99.90;;;;;;5072570;28;20062;-78
2020/12/31 09:10:46;;;;;;;33.97;18.45;;;8.70;99.90;;;;;;5072812;28;19904;-80
2020/12/31 09:13:18;;;;;;;37.55;18.42;;;8.70;99.90;;;;;;5053716;28;20036;-79
2020/12/31 09:15:44;;;;;;;39.85;19.92;;;8.60;99.90;;;;;;5072110;28;20066;-79
2020/12/31 09:18:19;;;;;;;31.40;17.95;;;8.60;99.90;;;;;;5072404;28;20036;-82
2020/12/31 09:20:46;;;;;;;26.58;17.13;;;8.70;99.90;;;;;;5054255;28;20096;-79
2020/12/31 09:23:12;;;;;;;32.90;16.98;;;8.70;99.90;;;;;;5053881;28;20035;-79
2020/12/31 09:25:51;;;;;;;37.45;17.17;;;8.70;99.90;;;;;;5075282;28;20362;-79
2020/12/31 09:28:17;;;;;;;33.85;18.58;;;8.80;99.90;;;;;;5081916;28;20403;-80
2020/12/31 09:30:43;;;;;;;34.08;18.05;;;8.80;99.90;;;;;;5068587;28;20377;-80
2020/12/31 09:33:14;;;;;;;38.55;19.75;;;8.90;99.90;;;;;;5094397;28;20478;-83
2020/12/31 09:35:40;;;;;;;39.92;18.50;;;8.90;99.90;;;;;;5093374;28;20115;-79
2020/12/31 09:38:06;;;;;;;34.50;18.38;;;8.90;99.90;;;;;;5086348;28;20103;-82
2020/12/31 09:40:31;;;;;;;37.50;17.42;;;9.00;99.90;;;;;;5074716;28;20032;-81
2020/12/31 09:42:57;;;;;;;37.35;17.88;;;9.00;99.90;;;;;;5093748;28;20045;-82
2020/12/31 09:45:23;;;;;;;32.35;17.88;;;9.10;99.90;;;;;;5093281;28;20032;-79
2020/12/31 09:47:48;;;;;;;33.50;18.25;;;9.10;99.90;;;;;;5093314;28;20101;-81
2020/12/31 09:50:14;;;;;;;38.35;19.15;;;9.10;99.90;;;;;;5075093;28;20386;-82
2020/12/31 09:52:41;;;;;;;28.85;18.02;;;9.00;99.90;;;;;;5092192;28;20125;-78
2020/12/31 09:55:07;;;;;;;31.52;17.73;;;8.90;99.90;;;;;;5073033;28;20081;-80
2020/12/31 09:57:36;;;;;;;33.70;18.08;;;8.90;99.90;;;;;;5073601;28;20214;-79
2020/12/31 10:00:05;;;;;;;37.15;19.42;;;8.90;99.90;;;;;;5091180;28;20040;-78
2020/12/31 10:02:32;;;;;;;37.65;18.25;;;8.90;99.90;;;;;;5091415;28;20047;-78
2020/12/31 10:04:57;;;;;;;36.88;17.92;;;8.90;99.90;;;;;;5091303;28;20027;-79
2020/12/31 10:07:23;;;;;;;40.47;17.65;;;8.90;99.90;;;;;;5091418;28;20398;-79
2020/12/31 10:09:49;;;;;;;43.13;17.52;;;8.90;99.90;;;;;;5092347;28;20031;-79
2020/12/31 10:12:14;;;;;;;36.17;17.40;;;8.90;99.90;;;;;;5092137;28;20032;-79
2020/12/31 10:14:42;;;;;;;30.13;17.60;;;8.90;99.90;;;;;;5091861;28;20020;-79
2020/12/31 10:17:08;;;;;;;35.10;18.23;;;8.90;99.90;;;;;;5073656;28;20894;-79
2020/12/31 10:19:35;;;;;;;31.67;17.58;;;8.90;99.90;;;;;;5091939;28;20089;-80
2020/12/31 10:22:01;;;;;;;34.33;17.67;;;9.00;99.90;;;;;;5092187;28;20028;-79
2020/12/31 10:24:27;;;;;;;35.28;18.60;;;8.90;99.90;;;;;;5092002;28;20073;-79
2020/12/31 10:26:53;;;;;;;39.00;17.38;;;8.90;99.90;;;;;;5072598;28;20016;-78
2020/12/31 10:29:18;;;;;;;32.47;18.10;;;8.80;99.90;;;;;;5091659;28;20424;-79
2020/12/31 10:31:53;;;;;;;38.22;18.85;;;8.80;99.90;;;;;;5091757;28;20074;-79
2020/12/31 10:34:20;;;;;;;33.22;18.55;;;8.80;99.90;;;;;;5092724;28;20043;-79
2020/12/31 10:36:55;;;;;;;37.92;19.83;;;8.80;99.90;;;;;;5092235;28;20119;-79
2020/12/31 10:39:22;;;;;;;49.30;21.77;;;8.80;99.90;;;;;;5074691;28;20031;-80
2020/12/31 10:41:49;;;;;;;47.45;23.15;;;8.80;99.90;;;;;;5092285;28;20016;-79
2020/12/31 10:44:16;;;;;;;66.10;26.17;;;8.80;99.90;;;;;;5077076;28;20022;-83
2020/12/31 10:46:45;;;;;;;109.40;40.25;;;8.80;99.90;;;;;;5078033;28;20024;-87
2020/12/31 10:49:11;;;;;;;127.80;45.45;;;8.70;99.90;;;;;;5077393;28;20020;-84
2020/12/31 10:51:39;;;;;;;114.45;39.25;;;8.70;99.90;;;;;;5098403;28;20024;-81
2020/12/31 10:54:05;;;;;;;85.43;33.58;;;8.60;99.90;;;;;;5094122;28;20046;-84
2020/12/31 10:56:31;;;;;;;86.40;34.20;;;8.60;99.90;;;;;;5094254;28;20024;-83
2020/12/31 10:58:57;;;;;;;96.43;36.10;;;8.60;99.90;;;;;;5075380;28;20027;-84
2020/12/31 11:01:23;;;;;;;98.50;35.60;;;8.60;99.90;;;;;;5092566;28;20469;-82
2020/12/31 11:03:50;;;;;;;83.35;33.30;;;8.70;99.90;;;;;;5074001;28;20052;-83
2020/12/31 11:06:20;;;;;;;69.13;28.40;;;8.60;99.90;;;;;;5083387;28;20035;-77
2020/12/31 11:08:46;;;;;;;62.20;27.75;;;8.60;99.90;;;;;;5090909;28;20025;-78
2020/12/31 11:11:16;;;;;;;47.35;24.42;;;8.60;99.90;;;;;;5073470;28;20590;-81
2020/12/31 11:13:42;;;;;;;57.20;27.65;;;8.70;99.90;;;;;;5091119;28;20036;-79
2020/12/31 11:16:08;;;;;;;62.13;25.30;;;8.70;99.90;;;;;;5072222;28;20385;-75
2020/12/31 11:18:34;;;;;;;51.15;25.02;;;8.70;99.90;;;;;;5092612;28;20038;-76
2020/12/31 11:21:00;;;;;;;49.78;24.27;;;8.70;99.90;;;;;;5090684;28;20107;-76
2020/12/31 11:23:26;;;;;;;45.08;20.70;;;8.80;99.90;;;;;;5089644;28;20027;-76
2020/12/31 11:25:51;;;;;;;40.50;21.15;;;8.80;99.90;;;;;;5071199;28;20081;-77
2020/12/31 11:28:18;;;;;;;43.75;20.38;;;8.80;99.90;;;;;;5090224;28;20081;-80
2020/12/31 11:30:44;;;;;;;43.67;21.48;;;8.80;99.90;;;;;;5072165;28;20028;-80
2020/12/31 11:33:10;;;;;;;43.80;20.70;;;8.90;99.90;;;;;;5090525;28;20115;-80
2020/12/31 11:35:36;;;;;;;42.92;21.50;;;8.90;99.90;;;;;;5089533;28;20020;-76
2020/12/31 11:38:02;;;;;;;36.92;20.42;;;9.00;99.90;;;;;;5073419;28;20032;-80
2020/12/31 11:40:28;;;;;;;41.47;20.02;;;9.00;99.90;;;;;;5095780;28;20089;-82
2020/12/31 11:42:54;;;;;;;38.25;20.15;;;9.00;99.90;;;;;;5096795;28;20027;-82
2020/12/31 11:45:20;;;;;;;36.15;20.25;;;9.00;99.90;;;;;;5096000;28;20025;-82
2020/12/31 11:47:46;;;;;;;36.28;19.70;;;9.00;99.90;;;;;;5077865;28;20043;-82
2020/12/31 11:50:12;;;;;;;38.05;18.10;;;9.00;99.90;;;;;;5077005;28;20161;-83
2020/12/31 11:52:37;;;;;;;30.33;17.80;;;9.00;99.90;;;;;;5075603;28;20119;-80
2020/12/31 11:55:04;;;;;;;33.72;17.88;;;9.00;99.90;;;;;;5094010;28;20028;-82
2020/12/31 11:57:30;;;;;;;34.00;19.50;;;9.10;99.90;;;;;;5076355;28;20028;-82
2020/12/31 11:59:55;;;;;;;36.63;18.65;;;9.00;99.90;;;;;;5075599;28;20131;-80
2020/12/31 12:02:21;;;;;;;40.88;19.05;;;9.00;99.90;;;;;;5094250;28;20132;-81
2020/12/31 12:04:46;;;;;;;37.67;19.33;;;9.00;99.90;;;;;;5075017;28;20027;-80
2020/12/31 12:07:12;;;;;;;32.58;18.55;;;9.00;99.90;;;;;;5093073;28;20038;-80
2020/12/31 12:09:38;;;;;;;37.70;19.67;;;8.90;99.90;;;;;;5074296;28;20413;-80
2020/12/31 12:12:08;;;;;;;37.90;21.33;;;8.90;99.90;;;;;;5092715;28;20036;-79
2020/12/31 12:14:34;;;;;;;37.50;19.90;;;8.90;99.90;;;;;;5092930;28;20020;-80
2020/12/31 12:17:01;;;;;;;36.00;20.67;;;8.90;99.90;;;;;;5074169;28;20081;-79
2020/12/31 12:19:27;;;;;;;37.95;20.38;;;8.80;99.90;;;;;;5092442;28;20104;-79
2020/12/31 12:22:00;;;;;;;34.33;19.20;;;8.80;99.90;;;;;;5092084;28;20055;-79
2020/12/31 12:24:29;;;;;;;41.80;19.95;;;8.80;99.90;;;;;;5074567;28;20024;-80
2020/12/31 12:26:55;;;;;;;37.45;20.08;;;8.70;99.90;;;;;;5092313;28;20066;-80
2020/12/31 12:29:24;;;;;;;38.33;19.80;;;8.70;99.90;;;;;;5073827;28;20095;-79
2020/12/31 12:31:49;;;;;;;37.55;20.33;;;8.70;99.90;;;;;;5074073;28;20363;-78
2020/12/31 12:34:15;;;;;;;39.90;21.27;;;8.70;99.90;;;;;;5092151;28;20024;-79
2020/12/31 12:36:42;;;;;;;45.78;21.65;;;8.70;99.90;;;;;;5092231;28;20062;-77
2020/12/31 12:39:08;;;;;;;48.17;24.05;;;8.70;99.90;;;;;;5073386;28;20024;-77
2020/12/31 12:41:34;;;;;;;41.17;21.77;;;8.70;99.90;;;;;;5092236;28;20717;-78
2020/12/31 12:44:00;;;;;;;50.78;23.60;;;8.70;99.90;;;;;;5091840;28;20020;-78